sensor_id;sensor_type;location;lat;lon;timestamp;P1;durP1;ratioP1;P2;durP2;ratioP2
39958;SDS011;25639;53.634;9.880;2022-08-04T00:00:13;12.10;;;5.53;;
39958;SDS011;25639;53.634;9.880;2022-08-04T00:05:28;14.93;;;6.68;;
39958;SDS011;25639;53.634;9.880;2022-08-04T00:08:03;18.00;;;7.30;;
39958;SDS011;25639;53.634;9.880;2022-08-04T00:10:31;15.95;;;6.97;;
39958;SDS011;25639;53.634;9.880;2022-08-04T00:12:59;13.32;;;6.25;;
39958;SDS011;25639;53.634;9.880;2022-08-04T00:15:27;13.45;;;6.80;;
39958;SDS011;25639;53.634;9.880;2022-08-04T00:18:00;11.45;;;6.07;;
39958;SDS011;25639;53.634;9.880;2022-08-04T00:20:29;16.67;;;7.28;;
39958;SDS011;25639;53.634;9.880;2022-08-04T00:22:57;18.40;;;7.38;;
39958;SDS011;25639;53.634;9.880;2022-08-04T00:25:24;15.55;;;6.72;;
39958;SDS011;25639;53.634;9.880;2022-08-04T00:27:50;15.68;;;6.07;;
39958;SDS011;25639;53.634;9.880;2022-08-04T00:30:15;18.88;;;6.53;;
39958;SDS011;25639;53.634;9.880;2022-08-04T00:32:41;18.52;;;7.53;;
39958;SDS011;25639;53.634;9.880;2022-08-04T00:35:09;11.55;;;6.40;;
39958;SDS011;25639;53.634;9.880;2022-08-04T00:37:37;19.88;;;6.60;;
39958;SDS011;25639;53.634;9.880;2022-08-04T00:40:08;9.15;;;6.00;;
39958;SDS011;25639;53.634;9.880;2022-08-04T00:43:02;13.60;;;6.38;;
39958;SDS011;25639;53.634;9.880;2022-08-04T00:45:40;15.25;;;7.13;;
39958;SDS011;25639;53.634;9.880;2022-08-04T00:51:14;14.48;;;6.65;;
39958;SDS011;25639;53.634;9.880;2022-08-04T00:54:05;11.23;;;6.13;;
39958;SDS011;25639;53.634;9.880;2022-08-04T00:56:57;16.10;;;6.40;;
39958;SDS011;25639;53.634;9.880;2022-08-04T00:59:56;12.93;;;6.03;;
39958;SDS011;25639;53.634;9.880;2022-08-04T01:11:25;19.15;;;6.53;;
39958;SDS011;25639;53.634;9.880;2022-08-04T01:14:11;12.05;;;5.32;;
39958;SDS011;25639;53.634;9.880;2022-08-04T01:16:57;14.52;;;5.38;;
39958;SDS011;25639;53.634;9.880;2022-08-04T01:30:36;20.95;;;6.47;;
39958;SDS011;25639;53.634;9.880;2022-08-04T01:33:12;12.50;;;5.38;;
39958;SDS011;25639;53.634;9.880;2022-08-04T01:35:50;10.75;;;5.15;;
39958;SDS011;25639;53.634;9.880;2022-08-04T01:41:13;11.57;;;5.22;;
39958;SDS011;25639;53.634;9.880;2022-08-04T01:43:43;14.82;;;5.30;;
39958;SDS011;25639;53.634;9.880;2022-08-04T01:46:11;11.88;;;5.60;;
39958;SDS011;25639;53.634;9.880;2022-08-04T01:48:38;16.65;;;4.85;;
39958;SDS011;25639;53.634;9.880;2022-08-04T01:51:07;13.32;;;5.03;;
39958;SDS011;25639;53.634;9.880;2022-08-04T01:53:34;7.93;;;5.00;;
39958;SDS011;25639;53.634;9.880;2022-08-04T01:56:01;10.57;;;4.97;;
39958;SDS011;25639;53.634;9.880;2022-08-04T01:58:30;8.93;;;4.60;;
39958;SDS011;25639;53.634;9.880;2022-08-04T02:00:57;14.48;;;5.25;;
39958;SDS011;25639;53.634;9.880;2022-08-04T02:03:26;13.93;;;5.38;;
39958;SDS011;25639;53.634;9.880;2022-08-04T02:05:53;10.80;;;5.50;;
39958;SDS011;25639;53.634;9.880;2022-08-04T02:08:43;10.68;;;4.75;;
39958;SDS011;25639;53.634;9.880;2022-08-04T02:11:29;9.95;;;4.88;;
39958;SDS011;25639;53.634;9.880;2022-08-04T02:14:01;12.30;;;4.80;;
39958;SDS011;25639;53.634;9.880;2022-08-04T02:17:14;14.20;;;4.82;;
39958;SDS011;25639;53.634;9.880;2022-08-04T02:22:32;14.07;;;5.22;;
39958;SDS011;25639;53.634;9.880;2022-08-04T02:25:05;14.15;;;4.78;;
39958;SDS011;25639;53.634;9.880;2022-08-04T02:28:17;11.48;;;4.32;;
39958;SDS011;25639;53.634;9.880;2022-08-04T02:31:07;12.85;;;4.85;;
39958;SDS011;25639;53.634;9.880;2022-08-04T02:34:00;13.45;;;4.22;;
39958;SDS011;25639;53.634;9.880;2022-08-04T02:36:39;11.07;;;4.40;;
39958;SDS011;25639;53.634;9.880;2022-08-04T02:39:06;16.30;;;4.50;;
39958;SDS011;25639;53.634;9.880;2022-08-04T02:41:33;12.13;;;4.70;;
39958;SDS011;25639;53.634;9.880;2022-08-04T02:44:00;11.02;;;4.45;;
39958;SDS011;25639;53.634;9.880;2022-08-04T02:46:27;14.75;;;4.75;;
39958;SDS011;25639;53.634;9.880;2022-08-04T02:48:54;13.27;;;4.57;;
39958;SDS011;25639;53.634;9.880;2022-08-04T02:51:24;8.20;;;4.35;;
39958;SDS011;25639;53.634;9.880;2022-08-04T02:53:52;10.43;;;4.97;;
39958;SDS011;25639;53.634;9.880;2022-08-04T02:56:20;9.45;;;4.78;;
39958;SDS011;25639;53.634;9.880;2022-08-04T02:58:48;12.75;;;4.78;;
39958;SDS011;25639;53.634;9.880;2022-08-04T03:01:16;10.52;;;4.78;;
39958;SDS011;25639;53.634;9.880;2022-08-04T03:14:43;13.25;;;5.10;;
39958;SDS011;25639;53.634;9.880;2022-08-04T03:17:20;12.45;;;4.47;;
39958;SDS011;25639;53.634;9.880;2022-08-04T03:25:23;10.75;;;4.97;;
39958;SDS011;25639;53.634;9.880;2022-08-04T03:52:26;9.77;;;4.73;;
39958;SDS011;25639;53.634;9.880;2022-08-04T04:01:00;13.32;;;4.50;;
39958;SDS011;25639;53.634;9.880;2022-08-04T04:04:02;6.90;;;3.75;;
39958;SDS011;25639;53.634;9.880;2022-08-04T04:15:46;12.27;;;3.80;;
39958;SDS011;25639;53.634;9.880;2022-08-04T04:18:29;14.30;;;4.30;;
39958;SDS011;25639;53.634;9.880;2022-08-04T04:23:51;10.60;;;3.88;;
39958;SDS011;25639;53.634;9.880;2022-08-04T04:32:34;7.22;;;4.10;;
39958;SDS011;25639;53.634;9.880;2022-08-04T04:46:26;9.77;;;4.53;;
39958;SDS011;25639;53.634;9.880;2022-08-04T04:56:55;7.22;;;3.70;;
39958;SDS011;25639;53.634;9.880;2022-08-04T04:59:31;12.85;;;4.22;;
39958;SDS011;25639;53.634;9.880;2022-08-04T05:02:18;14.35;;;4.32;;
39958;SDS011;25639;53.634;9.880;2022-08-04T05:05:20;11.10;;;3.88;;
39958;SDS011;25639;53.634;9.880;2022-08-04T05:14:15;8.68;;;3.05;;
39958;SDS011;25639;53.634;9.880;2022-08-04T05:17:00;12.10;;;4.07;;
39958;SDS011;25639;53.634;9.880;2022-08-04T05:19:40;8.85;;;3.60;;
39958;SDS011;25639;53.634;9.880;2022-08-04T05:22:09;12.82;;;3.42;;
39958;SDS011;25639;53.634;9.880;2022-08-04T05:24:37;8.52;;;3.10;;
39958;SDS011;25639;53.634;9.880;2022-08-04T05:27:19;7.55;;;2.80;;
39958;SDS011;25639;53.634;9.880;2022-08-04T05:29:50;8.27;;;3.72;;
39958;SDS011;25639;53.634;9.880;2022-08-04T05:32:19;13.02;;;3.45;;
39958;SDS011;25639;53.634;9.880;2022-08-04T05:34:51;7.82;;;3.33;;
39958;SDS011;25639;53.634;9.880;2022-08-04T05:37:24;7.72;;;3.00;;
39958;SDS011;25639;53.634;9.880;2022-08-04T05:39:58;9.77;;;3.22;;
39958;SDS011;25639;53.634;9.880;2022-08-04T05:42:29;10.90;;;3.30;;
39958;SDS011;25639;53.634;9.880;2022-08-04T05:44:57;9.23;;;3.17;;
39958;SDS011;25639;53.634;9.880;2022-08-04T05:47:24;9.32;;;2.90;;
39958;SDS011;25639;53.634;9.880;2022-08-04T05:49:51;10.93;;;3.38;;
39958;SDS011;25639;53.634;9.880;2022-08-04T05:52:18;11.32;;;3.45;;
39958;SDS011;25639;53.634;9.880;2022-08-04T05:54:45;10.85;;;3.50;;
39958;SDS011;25639;53.634;9.880;2022-08-04T05:57:11;11.98;;;3.33;;
39958;SDS011;25639;53.634;9.880;2022-08-04T05:59:39;8.93;;;3.10;;
39958;SDS011;25639;53.634;9.880;2022-08-04T06:02:10;14.73;;;3.58;;
39958;SDS011;25639;53.634;9.880;2022-08-04T06:04:38;11.00;;;3.40;;
39958;SDS011;25639;53.634;9.880;2022-08-04T06:07:05;12.63;;;3.20;;
39958;SDS011;25639;53.634;9.880;2022-08-04T06:09:32;15.45;;;3.25;;
39958;SDS011;25639;53.634;9.880;2022-08-04T06:12:02;10.43;;;3.70;;
39958;SDS011;25639;53.634;9.880;2022-08-04T06:16:57;9.45;;;3.30;;
39958;SDS011;25639;53.634;9.880;2022-08-04T06:19:25;13.30;;;3.45;;
39958;SDS011;25639;53.634;9.880;2022-08-04T06:21:55;12.95;;;2.83;;
39958;SDS011;25639;53.634;9.880;2022-08-04T06:24:23;13.52;;;3.80;;
39958;SDS011;25639;53.634;9.880;2022-08-04T06:26:52;16.58;;;3.67;;
39958;SDS011;25639;53.634;9.880;2022-08-04T06:29:19;17.73;;;3.53;;
39958;SDS011;25639;53.634;9.880;2022-08-04T06:32:04;16.05;;;3.60;;
39958;SDS011;25639;53.634;9.880;2022-08-04T06:34:54;12.18;;;3.10;;
39958;SDS011;25639;53.634;9.880;2022-08-04T06:37:23;10.05;;;3.20;;
39958;SDS011;25639;53.634;9.880;2022-08-04T06:39:50;11.77;;;3.10;;
39958;SDS011;25639;53.634;9.880;2022-08-04T06:42:16;15.75;;;3.55;;
39958;SDS011;25639;53.634;9.880;2022-08-04T06:44:45;12.38;;;3.67;;
39958;SDS011;25639;53.634;9.880;2022-08-04T06:47:14;12.82;;;3.30;;
39958;SDS011;25639;53.634;9.880;2022-08-04T06:49:43;19.63;;;3.72;;
39958;SDS011;25639;53.634;9.880;2022-08-04T06:52:10;12.43;;;3.58;;
39958;SDS011;25639;53.634;9.880;2022-08-04T06:54:41;10.05;;;3.20;;
39958;SDS011;25639;53.634;9.880;2022-08-04T06:57:07;12.00;;;3.17;;
39958;SDS011;25639;53.634;9.880;2022-08-04T06:59:35;14.77;;;3.22;;
39958;SDS011;25639;53.634;9.880;2022-08-04T07:02:00;10.13;;;3.40;;
39958;SDS011;25639;53.634;9.880;2022-08-04T07:04:26;19.27;;;3.50;;
39958;SDS011;25639;53.634;9.880;2022-08-04T07:06:52;16.63;;;3.55;;
39958;SDS011;25639;53.634;9.880;2022-08-04T07:09:18;15.13;;;3.92;;
39958;SDS011;25639;53.634;9.880;2022-08-04T07:11:43;17.15;;;3.55;;
39958;SDS011;25639;53.634;9.880;2022-08-04T07:14:11;12.15;;;3.85;;
39958;SDS011;25639;53.634;9.880;2022-08-04T07:16:38;12.05;;;3.70;;
39958;SDS011;25639;53.634;9.880;2022-08-04T07:19:05;12.75;;;3.72;;
39958;SDS011;25639;53.634;9.880;2022-08-04T07:21:31;19.20;;;3.70;;
39958;SDS011;25639;53.634;9.880;2022-08-04T07:23:59;15.18;;;3.78;;
39958;SDS011;25639;53.634;9.880;2022-08-04T07:26:28;11.30;;;3.70;;
39958;SDS011;25639;53.634;9.880;2022-08-04T07:28:53;17.80;;;3.85;;
39958;SDS011;25639;53.634;9.880;2022-08-04T07:31:19;16.80;;;3.42;;
39958;SDS011;25639;53.634;9.880;2022-08-04T07:33:47;13.93;;;3.70;;
39958;SDS011;25639;53.634;9.880;2022-08-04T07:36:13;12.77;;;3.80;;
39958;SDS011;25639;53.634;9.880;2022-08-04T07:38:39;16.77;;;3.45;;
39958;SDS011;25639;53.634;9.880;2022-08-04T07:41:05;20.05;;;3.97;;
39958;SDS011;25639;53.634;9.880;2022-08-04T07:43:31;17.13;;;3.58;;
39958;SDS011;25639;53.634;9.880;2022-08-04T07:45:56;14.48;;;3.13;;
39958;SDS011;25639;53.634;9.880;2022-08-04T07:48:22;16.50;;;3.42;;
39958;SDS011;25639;53.634;9.880;2022-08-04T07:50:48;25.02;;;3.47;;
39958;SDS011;25639;53.634;9.880;2022-08-04T07:53:14;15.93;;;3.17;;
39958;SDS011;25639;53.634;9.880;2022-08-04T07:55:41;18.67;;;3.50;;
39958;SDS011;25639;53.634;9.880;2022-08-04T07:58:09;12.05;;;2.80;;
39958;SDS011;25639;53.634;9.880;2022-08-04T08:00:35;13.25;;;3.38;;
39958;SDS011;25639;53.634;9.880;2022-08-04T08:03:00;28.00;;;4.05;;
39958;SDS011;25639;53.634;9.880;2022-08-04T08:05:28;13.02;;;2.97;;
39958;SDS011;25639;53.634;9.880;2022-08-04T08:07:55;12.30;;;3.63;;
39958;SDS011;25639;53.634;9.880;2022-08-04T08:10:22;14.82;;;2.83;;
39958;SDS011;25639;53.634;9.880;2022-08-04T08:12:48;14.32;;;2.92;;
39958;SDS011;25639;53.634;9.880;2022-08-04T08:15:14;13.05;;;2.70;;
39958;SDS011;25639;53.634;9.880;2022-08-04T08:17:40;10.10;;;3.15;;
39958;SDS011;25639;53.634;9.880;2022-08-04T08:20:06;17.85;;;3.20;;
39958;SDS011;25639;53.634;9.880;2022-08-04T08:22:33;11.00;;;3.00;;
39958;SDS011;25639;53.634;9.880;2022-08-04T08:25:00;15.43;;;3.40;;
39958;SDS011;25639;53.634;9.880;2022-08-04T08:27:26;10.18;;;3.17;;
39958;SDS011;25639;53.634;9.880;2022-08-04T08:29:51;11.23;;;2.75;;
39958;SDS011;25639;53.634;9.880;2022-08-04T08:32:17;8.07;;;2.92;;
39958;SDS011;25639;53.634;9.880;2022-08-04T08:34:44;15.15;;;3.83;;
39958;SDS011;25639;53.634;9.880;2022-08-04T08:39:53;10.20;;;2.90;;
39958;SDS011;25639;53.634;9.880;2022-08-04T08:48:03;9.88;;;2.58;;
39958;SDS011;25639;53.634;9.880;2022-08-04T08:59:14;14.63;;;2.80;;
39958;SDS011;25639;53.634;9.880;2022-08-04T09:12:28;11.63;;;2.92;;
39958;SDS011;25639;53.634;9.880;2022-08-04T09:15:13;17.52;;;3.00;;
39958;SDS011;25639;53.634;9.880;2022-08-04T09:20:30;16.50;;;3.20;;
39958;SDS011;25639;53.634;9.880;2022-08-04T09:23:06;7.88;;;2.30;;
39958;SDS011;25639;53.634;9.880;2022-08-04T09:25:56;8.65;;;2.42;;
39958;SDS011;25639;53.634;9.880;2022-08-04T09:28:23;15.23;;;2.65;;
39958;SDS011;25639;53.634;9.880;2022-08-04T09:30:58;5.45;;;2.33;;
39958;SDS011;25639;53.634;9.880;2022-08-04T09:39:02;5.32;;;2.20;;
39958;SDS011;25639;53.634;9.880;2022-08-04T09:41:40;7.03;;;2.00;;
39958;SDS011;25639;53.634;9.880;2022-08-04T09:47:14;8.65;;;2.25;;
39958;SDS011;25639;53.634;9.880;2022-08-04T09:49:49;9.50;;;2.10;;
39958;SDS011;25639;53.634;9.880;2022-08-04T09:58:17;7.63;;;2.33;;
39958;SDS011;25639;53.634;9.880;2022-08-04T10:01:09;4.00;;;2.30;;
39958;SDS011;25639;53.634;9.880;2022-08-04T10:03:40;5.50;;;2.40;;
39958;SDS011;25639;53.634;9.880;2022-08-04T10:11:54;4.90;;;2.10;;
39958;SDS011;25639;53.634;9.880;2022-08-04T10:14:35;10.38;;;2.70;;
39958;SDS011;25639;53.634;9.880;2022-08-04T10:19:49;7.50;;;2.20;;
39958;SDS011;25639;53.634;9.880;2022-08-04T10:25:02;5.47;;;2.17;;
39958;SDS011;25639;53.634;9.880;2022-08-04T10:27:45;9.25;;;2.60;;
39958;SDS011;25639;53.634;9.880;2022-08-04T10:30:12;3.55;;;2.42;;
39958;SDS011;25639;53.634;9.880;2022-08-04T10:35:10;8.38;;;2.20;;
39958;SDS011;25639;53.634;9.880;2022-08-04T10:37:44;11.27;;;2.67;;
39958;SDS011;25639;53.634;9.880;2022-08-04T10:40:31;5.07;;;2.28;;
39958;SDS011;25639;53.634;9.880;2022-08-04T10:43:03;7.40;;;2.97;;
39958;SDS011;25639;53.634;9.880;2022-08-04T10:45:40;8.43;;;2.47;;
39958;SDS011;25639;53.634;9.880;2022-08-04T10:48:22;7.68;;;2.58;;
39958;SDS011;25639;53.634;9.880;2022-08-04T10:53:35;4.22;;;2.00;;
39958;SDS011;25639;53.634;9.880;2022-08-04T10:56:18;10.23;;;2.42;;
39958;SDS011;25639;53.634;9.880;2022-08-04T10:58:55;4.53;;;2.40;;
39958;SDS011;25639;53.634;9.880;2022-08-04T11:01:28;5.80;;;2.60;;
39958;SDS011;25639;53.634;9.880;2022-08-04T11:04:17;7.85;;;2.63;;
39958;SDS011;25639;53.634;9.880;2022-08-04T11:06:49;4.43;;;2.28;;
39958;SDS011;25639;53.634;9.880;2022-08-04T11:09:16;8.88;;;2.35;;
39958;SDS011;25639;53.634;9.880;2022-08-04T11:11:44;4.18;;;2.00;;
39958;SDS011;25639;53.634;9.880;2022-08-04T11:14:22;4.90;;;2.28;;
39958;SDS011;25639;53.634;9.880;2022-08-04T11:16:55;3.65;;;2.20;;
39958;SDS011;25639;53.634;9.880;2022-08-04T11:22:05;5.13;;;2.40;;
39958;SDS011;25639;53.634;9.880;2022-08-04T11:30:02;6.35;;;2.10;;
39958;SDS011;25639;53.634;9.880;2022-08-04T11:32:35;5.20;;;2.20;;
39958;SDS011;25639;53.634;9.880;2022-08-04T11:35:08;3.80;;;1.83;;
39958;SDS011;25639;53.634;9.880;2022-08-04T11:37:45;5.22;;;2.22;;
39958;SDS011;25639;53.634;9.880;2022-08-04T11:40:22;9.48;;;2.40;;
39958;SDS011;25639;53.634;9.880;2022-08-04T11:42:59;5.75;;;2.00;;
39958;SDS011;25639;53.634;9.880;2022-08-04T11:45:38;7.25;;;2.03;;
39958;SDS011;25639;53.634;9.880;2022-08-04T11:48:10;3.15;;;2.13;;
39958;SDS011;25639;53.634;9.880;2022-08-04T11:50:53;5.78;;;2.00;;
39958;SDS011;25639;53.634;9.880;2022-08-04T11:53:21;2.85;;;1.80;;
39958;SDS011;25639;53.634;9.880;2022-08-04T11:55:49;2.75;;;2.13;;
39958;SDS011;25639;53.634;9.880;2022-08-04T11:58:17;3.63;;;1.80;;
39958;SDS011;25639;53.634;9.880;2022-08-04T12:00:49;2.00;;;1.80;;
39958;SDS011;25639;53.634;9.880;2022-08-04T12:03:36;6.13;;;1.77;;
39958;SDS011;25639;53.634;9.880;2022-08-04T12:14:46;4.53;;;1.55;;
39958;SDS011;25639;53.634;9.880;2022-08-04T12:17:21;4.57;;;1.98;;
39958;SDS011;25639;53.634;9.880;2022-08-04T12:19:56;4.95;;;2.30;;
39958;SDS011;25639;53.634;9.880;2022-08-04T12:22:25;6.67;;;2.27;;
39958;SDS011;25639;53.634;9.880;2022-08-04T12:24:58;3.40;;;1.77;;
39958;SDS011;25639;53.634;9.880;2022-08-04T12:30:14;2.35;;;1.55;;
39958;SDS011;25639;53.634;9.880;2022-08-04T12:32:46;1.83;;;1.73;;
39958;SDS011;25639;53.634;9.880;2022-08-04T12:35:22;5.05;;;1.80;;
39958;SDS011;25639;53.634;9.880;2022-08-04T12:38:06;4.78;;;1.88;;
39958;SDS011;25639;53.634;9.880;2022-08-04T12:40:46;2.47;;;1.90;;
39958;SDS011;25639;53.634;9.880;2022-08-04T12:43:28;2.47;;;2.10;;
39958;SDS011;25639;53.634;9.880;2022-08-04T12:45:56;4.28;;;2.22;;
39958;SDS011;25639;53.634;9.880;2022-08-04T12:48:26;5.60;;;2.00;;
39958;SDS011;25639;53.634;9.880;2022-08-04T12:50:53;2.08;;;1.77;;
39958;SDS011;25639;53.634;9.880;2022-08-04T12:53:21;2.30;;;1.80;;
39958;SDS011;25639;53.634;9.880;2022-08-04T12:55:50;5.55;;;2.10;;
39958;SDS011;25639;53.634;9.880;2022-08-04T12:58:17;3.00;;;1.80;;
39958;SDS011;25639;53.634;9.880;2022-08-04T13:00:49;1.80;;;1.70;;
39958;SDS011;25639;53.634;9.880;2022-08-04T13:03:17;4.40;;;1.80;;
39958;SDS011;25639;53.634;9.880;2022-08-04T13:05:44;2.97;;;1.98;;
39958;SDS011;25639;53.634;9.880;2022-08-04T13:08:13;2.78;;;1.83;;
39958;SDS011;25639;53.634;9.880;2022-08-04T13:10:44;8.23;;;2.28;;
39958;SDS011;25639;53.634;9.880;2022-08-04T13:13:16;3.88;;;1.80;;
39958;SDS011;25639;53.634;9.880;2022-08-04T13:15:52;4.65;;;1.90;;
39958;SDS011;25639;53.634;9.880;2022-08-04T13:18:19;2.05;;;1.73;;
39958;SDS011;25639;53.634;9.880;2022-08-04T13:20:46;3.50;;;2.15;;
39958;SDS011;25639;53.634;9.880;2022-08-04T13:23:12;4.30;;;1.80;;
39958;SDS011;25639;53.634;9.880;2022-08-04T13:25:45;3.60;;;1.58;;
39958;SDS011;25639;53.634;9.880;2022-08-04T13:28:19;4.45;;;1.80;;
39958;SDS011;25639;53.634;9.880;2022-08-04T13:30:45;2.88;;;1.73;;
39958;SDS011;25639;53.634;9.880;2022-08-04T13:33:12;7.85;;;2.00;;
39958;SDS011;25639;53.634;9.880;2022-08-04T13:35:46;4.30;;;2.00;;
39958;SDS011;25639;53.634;9.880;2022-08-04T13:38:13;3.58;;;1.65;;
39958;SDS011;25639;53.634;9.880;2022-08-04T13:40:40;5.05;;;1.70;;
39958;SDS011;25639;53.634;9.880;2022-08-04T13:43:08;3.08;;;1.98;;
39958;SDS011;25639;53.634;9.880;2022-08-04T13:45:37;3.35;;;1.70;;
39958;SDS011;25639;53.634;9.880;2022-08-04T13:48:05;2.55;;;1.70;;
39958;SDS011;25639;53.634;9.880;2022-08-04T13:50:31;2.78;;;2.03;;
39958;SDS011;25639;53.634;9.880;2022-08-04T13:52:58;3.85;;;2.17;;
39958;SDS011;25639;53.634;9.880;2022-08-04T13:58:04;2.63;;;2.05;;
39958;SDS011;25639;53.634;9.880;2022-08-04T14:00:38;8.75;;;2.00;;
39958;SDS011;25639;53.634;9.880;2022-08-04T14:03:07;4.47;;;1.75;;
39958;SDS011;25639;53.634;9.880;2022-08-04T14:05:32;4.45;;;1.88;;
39958;SDS011;25639;53.634;9.880;2022-08-04T14:08:05;7.75;;;2.25;;
39958;SDS011;25639;53.634;9.880;2022-08-04T14:10:35;3.38;;;1.80;;
39958;SDS011;25639;53.634;9.880;2022-08-04T14:13:02;2.10;;;1.80;;
39958;SDS011;25639;53.634;9.880;2022-08-04T14:18:22;8.00;;;2.60;;
39958;SDS011;25639;53.634;9.880;2022-08-04T14:23:45;6.70;;;2.58;;
39958;SDS011;25639;53.634;9.880;2022-08-04T14:26:24;9.30;;;2.67;;
39958;SDS011;25639;53.634;9.880;2022-08-04T14:28:52;6.88;;;2.80;;
39958;SDS011;25639;53.634;9.880;2022-08-04T14:31:21;15.27;;;2.83;;
39958;SDS011;25639;53.634;9.880;2022-08-04T14:33:49;8.52;;;3.28;;
39958;SDS011;25639;53.634;9.880;2022-08-04T14:36:15;9.10;;;3.38;;
39958;SDS011;25639;53.634;9.880;2022-08-04T14:41:14;6.50;;;2.80;;
39958;SDS011;25639;53.634;9.880;2022-08-04T14:46:20;10.90;;;3.70;;
39958;SDS011;25639;53.634;9.880;2022-08-04T14:49:00;14.70;;;3.63;;
39958;SDS011;25639;53.634;9.880;2022-08-04T14:51:32;10.48;;;3.50;;
39958;SDS011;25639;53.634;9.880;2022-08-04T14:53:59;16.38;;;4.22;;
39958;SDS011;25639;53.634;9.880;2022-08-04T14:56:25;13.25;;;4.10;;
39958;SDS011;25639;53.634;9.880;2022-08-04T14:58:57;12.15;;;3.80;;
39958;SDS011;25639;53.634;9.880;2022-08-04T15:01:27;13.48;;;3.03;;
39958;SDS011;25639;53.634;9.880;2022-08-04T15:03:54;11.25;;;3.95;;
39958;SDS011;25639;53.634;9.880;2022-08-04T15:06:21;15.48;;;4.22;;
39958;SDS011;25639;53.634;9.880;2022-08-04T15:08:50;13.48;;;4.03;;
39958;SDS011;25639;53.634;9.880;2022-08-04T15:11:16;10.48;;;4.20;;
39958;SDS011;25639;53.634;9.880;2022-08-04T15:13:41;13.02;;;3.55;;
39958;SDS011;25639;53.634;9.880;2022-08-04T15:16:08;15.10;;;4.15;;
39958;SDS011;25639;53.634;9.880;2022-08-04T15:18:38;16.08;;;3.80;;
39958;SDS011;25639;53.634;9.880;2022-08-04T15:21:04;12.00;;;3.30;;
39958;SDS011;25639;53.634;9.880;2022-08-04T15:23:30;16.23;;;3.95;;
39958;SDS011;25639;53.634;9.880;2022-08-04T15:25:56;11.00;;;4.13;;
39958;SDS011;25639;53.634;9.880;2022-08-04T15:28:25;16.02;;;4.43;;
39958;SDS011;25639;53.634;9.880;2022-08-04T15:30:52;13.32;;;3.72;;
39958;SDS011;25639;53.634;9.880;2022-08-04T15:33:18;14.35;;;4.00;;
39958;SDS011;25639;53.634;9.880;2022-08-04T15:35:49;20.23;;;4.47;;
39958;SDS011;25639;53.634;9.880;2022-08-04T15:38:36;13.77;;;4.18;;
39958;SDS011;25639;53.634;9.880;2022-08-04T15:41:07;14.45;;;3.90;;
39958;SDS011;25639;53.634;9.880;2022-08-04T15:49:17;11.32;;;4.55;;
39958;SDS011;25639;53.634;9.880;2022-08-04T15:51:44;12.57;;;4.75;;
39958;SDS011;25639;53.634;9.880;2022-08-04T15:56:45;14.25;;;5.80;;
39958;SDS011;25639;53.634;9.880;2022-08-04T15:59:12;14.65;;;4.57;;
39958;SDS011;25639;53.634;9.880;2022-08-04T16:01:37;19.85;;;5.25;;
39958;SDS011;25639;53.634;9.880;2022-08-04T16:04:22;17.40;;;4.63;;
39958;SDS011;25639;53.634;9.880;2022-08-04T16:06:49;13.32;;;5.00;;
39958;SDS011;25639;53.634;9.880;2022-08-04T16:09:25;19.25;;;5.35;;
39958;SDS011;25639;53.634;9.880;2022-08-04T16:11:51;14.70;;;5.15;;
39958;SDS011;25639;53.634;9.880;2022-08-04T16:14:28;20.45;;;6.25;;
39958;SDS011;25639;53.634;9.880;2022-08-04T16:16:55;18.88;;;6.22;;
39958;SDS011;25639;53.634;9.880;2022-08-04T16:22:10;12.77;;;4.60;;
39958;SDS011;25639;53.634;9.880;2022-08-04T16:24:54;12.75;;;4.40;;
39958;SDS011;25639;53.634;9.880;2022-08-04T16:27:20;10.07;;;4.65;;
39958;SDS011;25639;53.634;9.880;2022-08-04T16:30:09;14.65;;;4.38;;
39958;SDS011;25639;53.634;9.880;2022-08-04T16:32:46;11.70;;;3.63;;
39958;SDS011;25639;53.634;9.880;2022-08-04T16:35:25;13.85;;;4.53;;
39958;SDS011;25639;53.634;9.880;2022-08-04T16:40:38;11.93;;;4.40;;
39958;SDS011;25639;53.634;9.880;2022-08-04T16:43:08;11.40;;;3.78;;
39958;SDS011;25639;53.634;9.880;2022-08-04T16:48:14;17.83;;;4.13;;
39958;SDS011;25639;53.634;9.880;2022-08-04T16:50:44;9.30;;;3.58;;
39958;SDS011;25639;53.634;9.880;2022-08-04T16:53:43;11.15;;;3.42;;
39958;SDS011;25639;53.634;9.880;2022-08-04T16:56:10;8.65;;;3.70;;
39958;SDS011;25639;53.634;9.880;2022-08-04T16:58:38;14.25;;;4.93;;
39958;SDS011;25639;53.634;9.880;2022-08-04T17:01:08;11.93;;;3.92;;
39958;SDS011;25639;53.634;9.880;2022-08-04T17:03:37;11.23;;;4.45;;
39958;SDS011;25639;53.634;9.880;2022-08-04T17:06:13;9.40;;;4.18;;
39958;SDS011;25639;53.634;9.880;2022-08-04T17:08:42;12.77;;;4.55;;
39958;SDS011;25639;53.634;9.880;2022-08-04T17:11:10;9.68;;;3.40;;
39958;SDS011;25639;53.634;9.880;2022-08-04T17:13:38;10.93;;;4.07;;
39958;SDS011;25639;53.634;9.880;2022-08-04T17:16:05;10.55;;;4.53;;
39958;SDS011;25639;53.634;9.880;2022-08-04T17:18:40;10.02;;;4.50;;
39958;SDS011;25639;53.634;9.880;2022-08-04T17:21:14;8.25;;;4.25;;
39958;SDS011;25639;53.634;9.880;2022-08-04T17:23:44;10.93;;;4.40;;
39958;SDS011;25639;53.634;9.880;2022-08-04T17:26:19;10.15;;;3.85;;
39958;SDS011;25639;53.634;9.880;2022-08-04T17:28:47;9.30;;;4.40;;
39958;SDS011;25639;53.634;9.880;2022-08-04T17:31:14;15.23;;;5.03;;
39958;SDS011;25639;53.634;9.880;2022-08-04T17:33:44;8.93;;;4.40;;
39958;SDS011;25639;53.634;9.880;2022-08-04T17:36:11;10.55;;;4.28;;
39958;SDS011;25639;53.634;9.880;2022-08-04T17:41:06;9.10;;;4.78;;
39958;SDS011;25639;53.634;9.880;2022-08-04T17:48:40;14.05;;;5.60;;
39958;SDS011;25639;53.634;9.880;2022-08-04T17:51:13;18.33;;;5.43;;
39958;SDS011;25639;53.634;9.880;2022-08-04T17:53:39;12.63;;;5.22;;
39958;SDS011;25639;53.634;9.880;2022-08-04T17:56:05;11.45;;;4.45;;
39958;SDS011;25639;53.634;9.880;2022-08-04T17:58:30;10.48;;;5.07;;
39958;SDS011;25639;53.634;9.880;2022-08-04T18:01:00;8.70;;;4.57;;
39958;SDS011;25639;53.634;9.880;2022-08-04T18:03:26;9.77;;;3.97;;
39958;SDS011;25639;53.634;9.880;2022-08-04T18:05:52;10.50;;;4.93;;
39958;SDS011;25639;53.634;9.880;2022-08-04T18:08:22;8.73;;;3.90;;
39958;SDS011;25639;53.634;9.880;2022-08-04T18:10:49;15.02;;;5.57;;
39958;SDS011;25639;53.634;9.880;2022-08-04T18:13:15;14.73;;;5.68;;
39958;SDS011;25639;53.634;9.880;2022-08-04T18:15:40;10.10;;;4.68;;
39958;SDS011;25639;53.634;9.880;2022-08-04T18:18:20;17.20;;;4.78;;
39958;SDS011;25639;53.634;9.880;2022-08-04T18:20:46;16.85;;;5.38;;
39958;SDS011;25639;53.634;9.880;2022-08-04T18:23:12;9.68;;;4.88;;
39958;SDS011;25639;53.634;9.880;2022-08-04T18:25:42;15.00;;;4.90;;
39958;SDS011;25639;53.634;9.880;2022-08-04T18:28:09;10.30;;;4.10;;
39958;SDS011;25639;53.634;9.880;2022-08-04T18:30:35;8.82;;;4.35;;
39958;SDS011;25639;53.634;9.880;2022-08-04T18:33:00;12.43;;;4.47;;
39958;SDS011;25639;53.634;9.880;2022-08-04T18:35:27;13.38;;;4.75;;
39958;SDS011;25639;53.634;9.880;2022-08-04T18:37:53;11.00;;;4.22;;
39958;SDS011;25639;53.634;9.880;2022-08-04T18:40:18;6.03;;;3.63;;
39958;SDS011;25639;53.634;9.880;2022-08-04T18:42:45;9.05;;;3.45;;
39958;SDS011;25639;53.634;9.880;2022-08-04T18:45:10;7.90;;;3.47;;
39958;SDS011;25639;53.634;9.880;2022-08-04T18:47:37;8.27;;;3.47;;
39958;SDS011;25639;53.634;9.880;2022-08-04T18:50:02;6.97;;;3.20;;
39958;SDS011;25639;53.634;9.880;2022-08-04T18:52:28;9.77;;;3.05;;
39958;SDS011;25639;53.634;9.880;2022-08-04T18:54:53;5.72;;;3.03;;
39958;SDS011;25639;53.634;9.880;2022-08-04T18:57:19;9.88;;;2.70;;
39958;SDS011;25639;53.634;9.880;2022-08-04T18:59:46;12.00;;;3.35;;
39958;SDS011;25639;53.634;9.880;2022-08-04T19:02:12;8.10;;;3.05;;
39958;SDS011;25639;53.634;9.880;2022-08-04T19:04:38;8.63;;;3.10;;
39958;SDS011;25639;53.634;9.880;2022-08-04T19:07:05;14.40;;;3.47;;